Startpagina
METAR-TAF:

METAR-TAF

Vliegvelden :

Piešťany, Slowakije

breedte: 48-37-30N, lengte: 017-49-43E, hoogte: 163 m

Actueel weer

Dit bericht is 25 minuten geleden gemaakt, om 10:00 UTC
Wind 3 kt uit variabele richting
Temperatuur 14°C
Vochtigheid 31%
Druk 1029 hPa
Zicht 10 km of meer
geen wolken onder 1500 m en geen cumulonimbus

METAR: LZPP 051000Z VRB03KT CAVOK 14/M03 Q1029

Tijdstip: 12:25 (10:25 UTC)

Verwachting

Dit bericht is 2 uur en het 25 minuten geleden gemaakt, om 08:00 UTC
Verwachting geldig van 05 om 09 UTC tot 05 om 18 UTC
Wind 5 kt uit het noorden
Zicht 10 km of meer
geen wolken onder 1500 m en geen cumulonimbus

TAF: LZPP 050800Z 0509/0518 01005KT CAVOK

Waarnemingen en weersverwachtingen van meer dan 4000 vliegvelden (METAR en TAF).

De beschikbare stations zijn de gele en rode punten op de kaart.

Ga met uw muis naar het station om de naam te zien.

Klik dan om waarnemingen en weersverwachtingen te zien.

kaart wijzigen: klik op de groene knoppen met een zwart kruis om in te zoomen, op de groene knop met een streepje om uit te zoomen of op de groene pijlen voor aangrenzende kaarten.


METAR-TAF: